Terminal Aerodrome Forecast
Issued by NWS North Platte, NE

Home | Current Version | Previous Version | Graphics & Text | Print | Product List | Glossary On
Versions: 1 2 3 4 5 6 7 8 9 10 11 12 13 14 15 16 17 18 19 20
092
FTUS43 KLBF 151720
TAFVTN
TAF
KVTN 151720Z 1518/1618 14008KT P6SM SCT025
     FM152100 13009KT P6SM VCTS BKN100CB
      TEMPO 1523/1603 4SM TSRAGS BKN040CB
     FM160300 15007KT P6SM -TSRA OVC040CB
     FM160700 34006KT P6SM -SHRA OVC020
     FM161000 33006KT P6SM OVC012
     FM161700 34010KT P6SM OVC030=

USA.gov is the U.S. government's official web portal to all federal, state and local government web resources and services.